Ogre, Latvia
Current Conditions -  °F | °C
As of 11:50 AM on Tuesday 21 Oct 2014 (Local Time) from EVRA Reporting Station
Overcast Overcast  
Wind Chill: 40°   Ceiling: 2900
Heat Index: 45°   Visibility: 6mi
Dew Point: 41°   Wind: 9mph
Humidity: 87%   Direction: 30°NNE
Pressure: 29.65"   Gusts: NA
Location:  56.81°N, 24.61°E
Report Text: EVRA 210850Z 03008KT 9999 SCT010 OVC029 07/05 Q1004 R36/290195 NOSIG
Loading
Personal Weather Stations






























Interactive Weather Map
Tropical Storm Tracking
New forecast layout! Learn more

10-Day Weather Forecast

Advertisements
Track Severe Weather on mobile